sensor_id;sensor_type;location;lat;lon;timestamp;P1;durP1;ratioP1;P2;durP2;ratioP2
2542;SDS011;1116;51.502;7.414;2023-04-03T00:01:54;13.93;;;11.45;;
2542;SDS011;1116;51.502;7.414;2023-04-03T00:04:26;14.10;;;12.05;;
2542;SDS011;1116;51.502;7.414;2023-04-03T00:06:57;14.70;;;12.77;;
2542;SDS011;1116;51.502;7.414;2023-04-03T00:09:31;16.38;;;12.48;;
2542;SDS011;1116;51.502;7.414;2023-04-03T00:12:02;13.90;;;11.32;;
2542;SDS011;1116;51.502;7.414;2023-04-03T00:14:33;14.90;;;11.57;;
2542;SDS011;1116;51.502;7.414;2023-04-03T00:17:04;13.95;;;12.45;;
2542;SDS011;1116;51.502;7.414;2023-04-03T00:19:35;13.80;;;12.10;;
2542;SDS011;1116;51.502;7.414;2023-04-03T00:22:09;17.13;;;12.88;;
2542;SDS011;1116;51.502;7.414;2023-04-03T00:24:42;15.88;;;12.20;;
2542;SDS011;1116;51.502;7.414;2023-04-03T00:27:13;16.30;;;12.93;;
2542;SDS011;1116;51.502;7.414;2023-04-03T00:29:44;16.77;;;13.18;;
2542;SDS011;1116;51.502;7.414;2023-04-03T00:32:15;15.95;;;12.55;;
2542;SDS011;1116;51.502;7.414;2023-04-03T00:34:46;18.05;;;13.48;;
2542;SDS011;1116;51.502;7.414;2023-04-03T00:37:17;17.98;;;13.60;;
2542;SDS011;1116;51.502;7.414;2023-04-03T00:39:51;15.98;;;12.75;;
2542;SDS011;1116;51.502;7.414;2023-04-03T00:42:22;15.35;;;12.60;;
2542;SDS011;1116;51.502;7.414;2023-04-03T00:47:54;13.55;;;10.90;;
2542;SDS011;1116;51.502;7.414;2023-04-03T00:50:27;14.00;;;10.30;;
2542;SDS011;1116;51.502;7.414;2023-04-03T00:52:59;13.73;;;10.70;;
2542;SDS011;1116;51.502;7.414;2023-04-03T00:55:34;14.35;;;9.85;;
2542;SDS011;1116;51.502;7.414;2023-04-03T00:58:07;12.95;;;9.57;;
2542;SDS011;1116;51.502;7.414;2023-04-03T01:00:41;11.75;;;8.88;;
2542;SDS011;1116;51.502;7.414;2023-04-03T01:03:16;12.52;;;8.40;;
2542;SDS011;1116;51.502;7.414;2023-04-03T01:05:47;11.27;;;7.78;;
2542;SDS011;1116;51.502;7.414;2023-04-03T01:08:19;8.73;;;6.95;;
2542;SDS011;1116;51.502;7.414;2023-04-03T01:10:52;8.52;;;7.05;;
2542;SDS011;1116;51.502;7.414;2023-04-03T01:13:24;9.00;;;7.25;;
2542;SDS011;1116;51.502;7.414;2023-04-03T01:16:00;10.50;;;7.10;;
2542;SDS011;1116;51.502;7.414;2023-04-03T01:18:32;8.38;;;6.90;;
2542;SDS011;1116;51.502;7.414;2023-04-03T01:21:15;11.15;;;6.40;;
2542;SDS011;1116;51.502;7.414;2023-04-03T01:24:09;9.38;;;5.45;;
2542;SDS011;1116;51.502;7.414;2023-04-03T01:26:51;6.95;;;5.43;;
2542;SDS011;1116;51.502;7.414;2023-04-03T01:29:22;5.68;;;5.05;;
2542;SDS011;1116;51.502;7.414;2023-04-03T01:31:56;6.30;;;5.07;;
2542;SDS011;1116;51.502;7.414;2023-04-03T01:34:28;8.40;;;5.05;;
2542;SDS011;1116;51.502;7.414;2023-04-03T01:37:00;6.03;;;4.82;;
2542;SDS011;1116;51.502;7.414;2023-04-03T01:39:31;6.45;;;4.93;;
2542;SDS011;1116;51.502;7.414;2023-04-03T01:42:03;5.78;;;4.30;;
2542;SDS011;1116;51.502;7.414;2023-04-03T01:44:34;8.73;;;4.50;;
2542;SDS011;1116;51.502;7.414;2023-04-03T01:47:07;6.00;;;4.32;;
2542;SDS011;1116;51.502;7.414;2023-04-03T01:49:38;6.82;;;4.78;;
2542;SDS011;1116;51.502;7.414;2023-04-03T01:52:09;5.15;;;4.30;;
2542;SDS011;1116;51.502;7.414;2023-04-03T01:54:41;4.97;;;4.10;;
2542;SDS011;1116;51.502;7.414;2023-04-03T01:57:12;6.57;;;3.90;;
2542;SDS011;1116;51.502;7.414;2023-04-03T01:59:43;6.30;;;4.05;;
2542;SDS011;1116;51.502;7.414;2023-04-03T02:02:17;6.95;;;3.78;;
2542;SDS011;1116;51.502;7.414;2023-04-03T02:04:51;5.68;;;3.75;;
2542;SDS011;1116;51.502;7.414;2023-04-03T02:07:22;4.50;;;3.50;;
2542;SDS011;1116;51.502;7.414;2023-04-03T02:09:53;4.95;;;3.40;;
2542;SDS011;1116;51.502;7.414;2023-04-03T02:12:26;3.58;;;3.20;;
2542;SDS011;1116;51.502;7.414;2023-04-03T02:14:57;6.70;;;3.95;;
2542;SDS011;1116;51.502;7.414;2023-04-03T02:17:31;8.82;;;3.25;;
2542;SDS011;1116;51.502;7.414;2023-04-03T02:20:02;4.30;;;3.20;;
2542;SDS011;1116;51.502;7.414;2023-04-03T02:22:33;5.65;;;3.67;;
2542;SDS011;1116;51.502;7.414;2023-04-03T02:25:07;4.13;;;3.00;;
2542;SDS011;1116;51.502;7.414;2023-04-03T02:27:42;5.90;;;3.83;;
2542;SDS011;1116;51.502;7.414;2023-04-03T02:30:13;7.05;;;3.55;;
2542;SDS011;1116;51.502;7.414;2023-04-03T02:32:49;4.03;;;3.22;;
2542;SDS011;1116;51.502;7.414;2023-04-03T02:35:20;5.93;;;3.55;;
2542;SDS011;1116;51.502;7.414;2023-04-03T02:37:51;5.05;;;3.50;;
2542;SDS011;1116;51.502;7.414;2023-04-03T02:40:22;5.00;;;3.40;;
2542;SDS011;1116;51.502;7.414;2023-04-03T02:42:53;3.97;;;3.33;;
2542;SDS011;1116;51.502;7.414;2023-04-03T02:45:24;5.80;;;3.25;;
2542;SDS011;1116;51.502;7.414;2023-04-03T02:47:57;4.50;;;3.10;;
2542;SDS011;1116;51.502;7.414;2023-04-03T02:50:28;4.47;;;3.50;;
2542;SDS011;1116;51.502;7.414;2023-04-03T02:52:59;6.32;;;3.20;;
2542;SDS011;1116;51.502;7.414;2023-04-03T02:55:33;4.40;;;3.00;;
2542;SDS011;1116;51.502;7.414;2023-04-03T02:58:04;6.07;;;2.78;;
2542;SDS011;1116;51.502;7.414;2023-04-03T03:00:36;5.57;;;3.20;;
2542;SDS011;1116;51.502;7.414;2023-04-03T03:03:10;3.72;;;2.97;;
2542;SDS011;1116;51.502;7.414;2023-04-03T03:05:41;3.53;;;2.80;;
2542;SDS011;1116;51.502;7.414;2023-04-03T03:08:13;5.18;;;3.15;;
2542;SDS011;1116;51.502;7.414;2023-04-03T03:10:47;4.95;;;3.35;;
2542;SDS011;1116;51.502;7.414;2023-04-03T03:13:18;3.92;;;2.80;;
2542;SDS011;1116;51.502;7.414;2023-04-03T03:15:49;7.20;;;3.22;;
2542;SDS011;1116;51.502;7.414;2023-04-03T03:18:23;5.18;;;2.80;;
2542;SDS011;1116;51.502;7.414;2023-04-03T03:20:55;6.70;;;3.28;;
2542;SDS011;1116;51.502;7.414;2023-04-03T03:23:28;3.80;;;2.70;;
2542;SDS011;1116;51.502;7.414;2023-04-03T03:26:01;4.25;;;3.05;;
2542;SDS011;1116;51.502;7.414;2023-04-03T03:28:33;4.70;;;2.80;;
2542;SDS011;1116;51.502;7.414;2023-04-03T03:31:05;5.32;;;2.60;;
2542;SDS011;1116;51.502;7.414;2023-04-03T03:33:40;6.38;;;2.85;;
2542;SDS011;1116;51.502;7.414;2023-04-03T03:36:11;5.47;;;2.60;;
2542;SDS011;1116;51.502;7.414;2023-04-03T03:38:42;5.13;;;2.75;;
2542;SDS011;1116;51.502;7.414;2023-04-03T03:41:15;4.63;;;2.17;;
2542;SDS011;1116;51.502;7.414;2023-04-03T03:43:46;4.10;;;2.55;;
2542;SDS011;1116;51.502;7.414;2023-04-03T03:46:17;5.80;;;3.05;;
2542;SDS011;1116;51.502;7.414;2023-04-03T03:48:50;7.15;;;3.00;;
2542;SDS011;1116;51.502;7.414;2023-04-03T03:51:22;5.00;;;3.10;;
2542;SDS011;1116;51.502;7.414;2023-04-03T03:53:52;4.40;;;2.63;;
2542;SDS011;1116;51.502;7.414;2023-04-03T03:56:23;4.28;;;2.45;;
2542;SDS011;1116;51.502;7.414;2023-04-03T03:58:57;5.95;;;2.75;;
2542;SDS011;1116;51.502;7.414;2023-04-03T04:01:30;5.50;;;3.38;;
2542;SDS011;1116;51.502;7.414;2023-04-03T04:04:03;6.15;;;2.35;;
2542;SDS011;1116;51.502;7.414;2023-04-03T04:06:37;5.53;;;3.03;;
2542;SDS011;1116;51.502;7.414;2023-04-03T04:09:08;5.85;;;2.30;;
2542;SDS011;1116;51.502;7.414;2023-04-03T04:11:40;4.35;;;2.67;;
2542;SDS011;1116;51.502;7.414;2023-04-03T04:14:11;6.35;;;2.58;;
2542;SDS011;1116;51.502;7.414;2023-04-03T04:16:42;4.55;;;2.60;;
2542;SDS011;1116;51.502;7.414;2023-04-03T04:19:16;5.80;;;2.72;;
2542;SDS011;1116;51.502;7.414;2023-04-03T04:21:47;4.43;;;2.67;;
2542;SDS011;1116;51.502;7.414;2023-04-03T04:24:18;8.02;;;2.60;;
2542;SDS011;1116;51.502;7.414;2023-04-03T04:26:50;7.53;;;2.80;;
2542;SDS011;1116;51.502;7.414;2023-04-03T04:29:21;8.90;;;2.88;;
2542;SDS011;1116;51.502;7.414;2023-04-03T04:31:52;7.95;;;2.78;;
2542;SDS011;1116;51.502;7.414;2023-04-03T04:34:25;6.10;;;2.85;;
2542;SDS011;1116;51.502;7.414;2023-04-03T04:36:57;4.88;;;2.33;;
2542;SDS011;1116;51.502;7.414;2023-04-03T04:39:28;3.90;;;2.40;;
2542;SDS011;1116;51.502;7.414;2023-04-03T04:42:02;5.57;;;2.53;;
2542;SDS011;1116;51.502;7.414;2023-04-03T04:44:34;5.22;;;2.70;;
2542;SDS011;1116;51.502;7.414;2023-04-03T04:47:05;5.70;;;2.58;;
2542;SDS011;1116;51.502;7.414;2023-04-03T04:49:39;4.55;;;2.20;;
2542;SDS011;1116;51.502;7.414;2023-04-03T04:52:10;8.00;;;2.83;;
2542;SDS011;1116;51.502;7.414;2023-04-03T04:54:41;5.07;;;3.05;;
2542;SDS011;1116;51.502;7.414;2023-04-03T04:57:12;3.65;;;2.40;;
2542;SDS011;1116;51.502;7.414;2023-04-03T04:59:45;5.80;;;2.80;;
2542;SDS011;1116;51.502;7.414;2023-04-03T05:02:16;5.78;;;2.80;;
2542;SDS011;1116;51.502;7.414;2023-04-03T05:04:52;3.97;;;2.78;;
2542;SDS011;1116;51.502;7.414;2023-04-03T05:07:23;3.97;;;2.63;;
2542;SDS011;1116;51.502;7.414;2023-04-03T05:09:54;6.20;;;2.40;;
2542;SDS011;1116;51.502;7.414;2023-04-03T05:12:25;7.40;;;2.83;;
2542;SDS011;1116;51.502;7.414;2023-04-03T05:14:57;3.25;;;2.40;;
2542;SDS011;1116;51.502;7.414;2023-04-03T05:17:27;10.93;;;3.60;;
2542;SDS011;1116;51.502;7.414;2023-04-03T05:20:01;5.50;;;2.55;;
2542;SDS011;1116;51.502;7.414;2023-04-03T05:22:33;6.03;;;3.20;;
2542;SDS011;1116;51.502;7.414;2023-04-03T05:25:04;4.07;;;2.95;;
2542;SDS011;1116;51.502;7.414;2023-04-03T05:27:38;5.00;;;3.05;;
2542;SDS011;1116;51.502;7.414;2023-04-03T05:30:09;5.47;;;2.92;;
2542;SDS011;1116;51.502;7.414;2023-04-03T05:32:41;7.60;;;3.13;;
2542;SDS011;1116;51.502;7.414;2023-04-03T05:35:15;7.03;;;3.45;;
2542;SDS011;1116;51.502;7.414;2023-04-03T05:37:49;4.30;;;3.50;;
2542;SDS011;1116;51.502;7.414;2023-04-03T05:40:20;7.60;;;2.97;;
2542;SDS011;1116;51.502;7.414;2023-04-03T05:42:51;5.05;;;3.10;;
2542;SDS011;1116;51.502;7.414;2023-04-03T05:45:22;4.93;;;3.00;;
2542;SDS011;1116;51.502;7.414;2023-04-03T05:47:55;6.97;;;3.30;;
2542;SDS011;1116;51.502;7.414;2023-04-03T05:50:29;4.63;;;2.90;;
2542;SDS011;1116;51.502;7.414;2023-04-03T05:53:00;5.65;;;3.08;;
2542;SDS011;1116;51.502;7.414;2023-04-03T05:55:34;7.15;;;2.88;;
2542;SDS011;1116;51.502;7.414;2023-04-03T05:58:07;8.10;;;3.67;;
2542;SDS011;1116;51.502;7.414;2023-04-03T06:00:38;7.60;;;3.45;;
2542;SDS011;1116;51.502;7.414;2023-04-03T06:03:09;5.65;;;3.40;;
2542;SDS011;1116;51.502;7.414;2023-04-03T06:05:43;6.25;;;3.00;;
2542;SDS011;1116;51.502;7.414;2023-04-03T06:08:14;6.35;;;3.20;;
2542;SDS011;1116;51.502;7.414;2023-04-03T06:10:46;4.97;;;3.45;;
2542;SDS011;1116;51.502;7.414;2023-04-03T06:13:18;8.27;;;3.20;;
2542;SDS011;1116;51.502;7.414;2023-04-03T06:15:49;6.00;;;3.15;;
2542;SDS011;1116;51.502;7.414;2023-04-03T06:18:20;8.20;;;3.70;;
2542;SDS011;1116;51.502;7.414;2023-04-03T06:20:54;6.57;;;3.40;;
2542;SDS011;1116;51.502;7.414;2023-04-03T06:23:25;4.63;;;2.73;;
2542;SDS011;1116;51.502;7.414;2023-04-03T06:25:56;4.97;;;2.43;;
2542;SDS011;1116;51.502;7.414;2023-04-03T06:28:27;5.00;;;2.63;;
2542;SDS011;1116;51.502;7.414;2023-04-03T06:31:00;3.30;;;2.33;;
2542;SDS011;1116;51.502;7.414;2023-04-03T06:33:31;4.17;;;2.57;;
2542;SDS011;1116;51.502;7.414;2023-04-03T06:36:05;4.90;;;2.30;;
2542;SDS011;1116;51.502;7.414;2023-04-03T06:38:37;6.90;;;2.57;;
2542;SDS011;1116;51.502;7.414;2023-04-03T06:41:08;4.00;;;2.40;;
2542;SDS011;1116;51.502;7.414;2023-04-03T06:43:39;5.67;;;2.60;;
2542;SDS011;1116;51.502;7.414;2023-04-03T06:46:14;4.60;;;2.50;;
2542;SDS011;1116;51.502;7.414;2023-04-03T06:48:47;4.23;;;2.40;;
2542;SDS011;1116;51.502;7.414;2023-04-03T06:51:22;7.47;;;2.57;;
2542;SDS011;1116;51.502;7.414;2023-04-03T06:53:55;5.20;;;2.50;;
2542;SDS011;1116;51.502;7.414;2023-04-03T06:56:27;4.03;;;2.30;;
2542;SDS011;1116;51.502;7.414;2023-04-03T06:58:59;4.47;;;2.43;;
2542;SDS011;1116;51.502;7.414;2023-04-03T07:01:30;5.30;;;2.57;;
2542;SDS011;1116;51.502;7.414;2023-04-03T07:04:01;6.93;;;2.60;;
2542;SDS011;1116;51.502;7.414;2023-04-03T07:06:36;8.70;;;2.23;;
2542;SDS011;1116;51.502;7.414;2023-04-03T07:09:07;9.20;;;2.73;;
2542;SDS011;1116;51.502;7.414;2023-04-03T07:11:39;4.00;;;2.27;;
2542;SDS011;1116;51.502;7.414;2023-04-03T07:14:10;5.33;;;2.30;;
2542;SDS011;1116;51.502;7.414;2023-04-03T07:16:49;4.47;;;2.60;;
2542;SDS011;1116;51.502;7.414;2023-04-03T07:19:23;2.57;;;1.90;;
2542;SDS011;1116;51.502;7.414;2023-04-03T07:22:01;5.07;;;2.90;;
2542;SDS011;1116;51.502;7.414;2023-04-03T07:24:53;4.63;;;2.13;;
2542;SDS011;1116;51.502;7.414;2023-04-03T07:27:24;4.47;;;2.50;;
2542;SDS011;1116;51.502;7.414;2023-04-03T07:30:00;5.40;;;2.20;;
2542;SDS011;1116;51.502;7.414;2023-04-03T07:32:36;3.80;;;2.07;;
2542;SDS011;1116;51.502;7.414;2023-04-03T07:35:18;3.90;;;2.17;;
2542;SDS011;1116;51.502;7.414;2023-04-03T07:37:52;6.00;;;2.90;;
2542;SDS011;1116;51.502;7.414;2023-04-03T07:43:12;5.37;;;2.37;;
2542;SDS011;1116;51.502;7.414;2023-04-03T07:45:43;5.40;;;2.17;;
2542;SDS011;1116;51.502;7.414;2023-04-03T07:48:17;2.73;;;1.80;;
2542;SDS011;1116;51.502;7.414;2023-04-03T07:50:59;5.00;;;2.17;;
2542;SDS011;1116;51.502;7.414;2023-04-03T07:53:34;4.40;;;2.13;;
2542;SDS011;1116;51.502;7.414;2023-04-03T07:56:05;4.57;;;1.90;;
2542;SDS011;1116;51.502;7.414;2023-04-03T07:58:37;4.13;;;2.03;;
2542;SDS011;1116;51.502;7.414;2023-04-03T08:01:08;6.97;;;1.80;;
2542;SDS011;1116;51.502;7.414;2023-04-03T08:03:39;3.80;;;2.07;;
2542;SDS011;1116;51.502;7.414;2023-04-03T08:06:10;3.13;;;1.63;;
2542;SDS011;1116;51.502;7.414;2023-04-03T08:08:47;4.30;;;1.80;;
2542;SDS011;1116;51.502;7.414;2023-04-03T08:11:19;6.40;;;2.20;;
2542;SDS011;1116;51.502;7.414;2023-04-03T08:13:54;3.50;;;1.80;;
2542;SDS011;1116;51.502;7.414;2023-04-03T08:16:25;4.67;;;2.10;;
2542;SDS011;1116;51.502;7.414;2023-04-03T08:18:57;3.90;;;2.00;;
2542;SDS011;1116;51.502;7.414;2023-04-03T08:21:29;8.47;;;2.30;;
2542;SDS011;1116;51.502;7.414;2023-04-03T08:24:02;2.93;;;2.00;;
2542;SDS011;1116;51.502;7.414;2023-04-03T08:26:37;3.07;;;1.87;;
2542;SDS011;1116;51.502;7.414;2023-04-03T08:29:08;5.73;;;2.07;;
2542;SDS011;1116;51.502;7.414;2023-04-03T08:31:41;5.33;;;1.90;;
2542;SDS011;1116;51.502;7.414;2023-04-03T08:34:12;3.40;;;1.50;;
2542;SDS011;1116;51.502;7.414;2023-04-03T08:36:43;5.07;;;2.47;;
2542;SDS011;1116;51.502;7.414;2023-04-03T08:39:17;4.03;;;2.17;;
2542;SDS011;1116;51.502;7.414;2023-04-03T08:41:54;2.67;;;1.53;;
2542;SDS011;1116;51.502;7.414;2023-04-03T08:44:33;5.40;;;2.20;;
2542;SDS011;1116;51.502;7.414;2023-04-03T08:47:11;8.30;;;1.70;;
2542;SDS011;1116;51.502;7.414;2023-04-03T08:49:52;2.67;;;1.23;;
2542;SDS011;1116;51.502;7.414;2023-04-03T08:52:28;11.13;;;1.70;;
2542;SDS011;1116;51.502;7.414;2023-04-03T08:55:12;2.80;;;1.60;;
2542;SDS011;1116;51.502;7.414;2023-04-03T08:57:51;3.97;;;1.70;;
2542;SDS011;1116;51.502;7.414;2023-04-03T09:00:29;4.27;;;1.70;;
2542;SDS011;1116;51.502;7.414;2023-04-03T09:03:04;3.53;;;1.47;;
2542;SDS011;1116;51.502;7.414;2023-04-03T09:05:39;3.90;;;1.70;;
2542;SDS011;1116;51.502;7.414;2023-04-03T09:08:24;7.60;;;1.67;;
2542;SDS011;1116;51.502;7.414;2023-04-03T09:11:12;4.70;;;2.00;;
2542;SDS011;1116;51.502;7.414;2023-04-03T09:13:49;4.40;;;2.40;;
2542;SDS011;1116;51.502;7.414;2023-04-03T09:16:29;2.50;;;1.77;;
2542;SDS011;1116;51.502;7.414;2023-04-03T09:19:13;4.13;;;1.80;;
2542;SDS011;1116;51.502;7.414;2023-04-03T09:21:52;3.37;;;1.93;;
2542;SDS011;1116;51.502;7.414;2023-04-03T09:24:23;3.53;;;1.93;;
2542;SDS011;1116;51.502;7.414;2023-04-03T09:26:58;6.20;;;2.10;;
2542;SDS011;1116;51.502;7.414;2023-04-03T09:29:32;4.80;;;1.53;;
2542;SDS011;1116;51.502;7.414;2023-04-03T09:32:16;2.13;;;1.70;;
2542;SDS011;1116;51.502;7.414;2023-04-03T09:34:53;2.30;;;1.33;;
2542;SDS011;1116;51.502;7.414;2023-04-03T09:37:33;4.23;;;1.57;;
2542;SDS011;1116;51.502;7.414;2023-04-03T09:43:19;3.20;;;1.60;;
2542;SDS011;1116;51.502;7.414;2023-04-03T09:45:53;2.80;;;1.60;;
2542;SDS011;1116;51.502;7.414;2023-04-03T09:48:25;2.70;;;1.20;;
2542;SDS011;1116;51.502;7.414;2023-04-03T09:51:01;3.03;;;1.40;;
2542;SDS011;1116;51.502;7.414;2023-04-03T09:53:33;2.67;;;1.50;;
2542;SDS011;1116;51.502;7.414;2023-04-03T09:56:18;2.00;;;1.60;;
2542;SDS011;1116;51.502;7.414;2023-04-03T09:59:07;3.80;;;1.67;;
2542;SDS011;1116;51.502;7.414;2023-04-03T10:01:56;6.33;;;1.80;;
2542;SDS011;1116;51.502;7.414;2023-04-03T10:04:37;4.03;;;1.60;;
2542;SDS011;1116;51.502;7.414;2023-04-03T10:10:03;3.23;;;1.60;;
2542;SDS011;1116;51.502;7.414;2023-04-03T10:12:48;3.83;;;1.63;;
2542;SDS011;1116;51.502;7.414;2023-04-03T10:15:38;4.20;;;1.37;;
2542;SDS011;1116;51.502;7.414;2023-04-03T10:18:19;3.90;;;1.50;;
2542;SDS011;1116;51.502;7.414;2023-04-03T10:21:02;2.80;;;1.50;;
2542;SDS011;1116;51.502;7.414;2023-04-03T10:23:53;3.63;;;1.70;;
2542;SDS011;1116;51.502;7.414;2023-04-03T10:26:36;3.17;;;1.70;;
2542;SDS011;1116;51.502;7.414;2023-04-03T10:29:30;2.23;;;1.40;;
2542;SDS011;1116;51.502;7.414;2023-04-03T10:32:25;5.33;;;2.33;;
2542;SDS011;1116;51.502;7.414;2023-04-03T10:35:14;3.93;;;2.00;;
2542;SDS011;1116;51.502;7.414;2023-04-03T10:38:05;5.37;;;1.90;;
2542;SDS011;1116;51.502;7.414;2023-04-03T10:40:47;3.53;;;1.80;;
2542;SDS011;1116;51.502;7.414;2023-04-03T10:43:24;1.87;;;1.60;;
2542;SDS011;1116;51.502;7.414;2023-04-03T10:46:05;2.00;;;1.53;;
2542;SDS011;1116;51.502;7.414;2023-04-03T10:48:49;2.53;;;1.50;;
2542;SDS011;1116;51.502;7.414;2023-04-03T10:51:33;5.43;;;1.90;;
2542;SDS011;1116;51.502;7.414;2023-04-03T10:54:11;2.37;;;1.37;;
2542;SDS011;1116;51.502;7.414;2023-04-03T10:56:47;2.50;;;1.70;;
2542;SDS011;1116;51.502;7.414;2023-04-03T10:59:40;3.07;;;1.57;;
2542;SDS011;1116;51.502;7.414;2023-04-03T11:02:16;1.60;;;1.20;;
2542;SDS011;1116;51.502;7.414;2023-04-03T11:05:01;2.70;;;1.60;;
2542;SDS011;1116;51.502;7.414;2023-04-03T11:07:38;3.97;;;1.30;;
2542;SDS011;1116;51.502;7.414;2023-04-03T11:10:11;3.47;;;1.40;;
2542;SDS011;1116;51.502;7.414;2023-04-03T11:12:48;5.17;;;1.40;;
2542;SDS011;1116;51.502;7.414;2023-04-03T11:15:22;3.63;;;1.50;;
2542;SDS011;1116;51.502;7.414;2023-04-03T11:17:58;4.80;;;1.90;;
2542;SDS011;1116;51.502;7.414;2023-04-03T11:20:35;2.33;;;1.40;;
2542;SDS011;1116;51.502;7.414;2023-04-03T11:23:09;3.77;;;1.70;;
2542;SDS011;1116;51.502;7.414;2023-04-03T11:25:50;5.70;;;2.50;;
2542;SDS011;1116;51.502;7.414;2023-04-03T11:28:29;1.63;;;1.37;;
2542;SDS011;1116;51.502;7.414;2023-04-03T11:31:02;1.90;;;1.47;;
2542;SDS011;1116;51.502;7.414;2023-04-03T11:33:47;2.67;;;1.73;;
2542;SDS011;1116;51.502;7.414;2023-04-03T11:36:31;5.50;;;1.60;;
2542;SDS011;1116;51.502;7.414;2023-04-03T11:39:07;3.37;;;1.23;;
2542;SDS011;1116;51.502;7.414;2023-04-03T11:41:47;3.43;;;1.23;;
2542;SDS011;1116;51.502;7.414;2023-04-03T11:44:34;1.53;;;1.27;;
2542;SDS011;1116;51.502;7.414;2023-04-03T11:47:07;3.20;;;1.30;;
2542;SDS011;1116;51.502;7.414;2023-04-03T11:49:52;2.20;;;1.60;;
2542;SDS011;1116;51.502;7.414;2023-04-03T11:58:28;2.33;;;1.30;;
2542;SDS011;1116;51.502;7.414;2023-04-03T12:01:08;1.40;;;1.30;;
2542;SDS011;1116;51.502;7.414;2023-04-03T12:09:35;1.40;;;1.10;;
2542;SDS011;1116;51.502;7.414;2023-04-03T12:12:35;3.90;;;1.40;;
2542;SDS011;1116;51.502;7.414;2023-04-03T12:15:19;2.40;;;1.30;;
2542;SDS011;1116;51.502;7.414;2023-04-03T12:21:20;2.80;;;1.47;;
2542;SDS011;1116;51.502;7.414;2023-04-03T12:23:57;2.50;;;0.93;;
2542;SDS011;1116;51.502;7.414;2023-04-03T12:26:40;1.97;;;1.20;;
2542;SDS011;1116;51.502;7.414;2023-04-03T12:29:17;2.60;;;1.27;;
2542;SDS011;1116;51.502;7.414;2023-04-03T12:31:56;3.27;;;1.20;;
2542;SDS011;1116;51.502;7.414;2023-04-03T12:34:42;1.63;;;0.93;;
2542;SDS011;1116;51.502;7.414;2023-04-03T12:37:31;3.07;;;1.27;;
2542;SDS011;1116;51.502;7.414;2023-04-03T12:40:24;2.20;;;1.40;;
2542;SDS011;1116;51.502;7.414;2023-04-03T12:43:08;2.33;;;1.30;;
2542;SDS011;1116;51.502;7.414;2023-04-03T12:45:55;4.80;;;1.47;;
2542;SDS011;1116;51.502;7.414;2023-04-03T12:48:30;5.13;;;2.80;;
2542;SDS011;1116;51.502;7.414;2023-04-03T12:51:03;2.40;;;1.20;;
2542;SDS011;1116;51.502;7.414;2023-04-03T12:53:36;3.60;;;1.10;;
2542;SDS011;1116;51.502;7.414;2023-04-03T12:56:19;4.83;;;1.43;;
2542;SDS011;1116;51.502;7.414;2023-04-03T12:59:13;4.57;;;1.50;;
2542;SDS011;1116;51.502;7.414;2023-04-03T13:01:52;1.97;;;1.60;;
2542;SDS011;1116;51.502;7.414;2023-04-03T13:04:25;1.50;;;1.13;;
2542;SDS011;1116;51.502;7.414;2023-04-03T13:06:58;2.80;;;1.57;;
2542;SDS011;1116;51.502;7.414;2023-04-03T13:09:30;2.20;;;1.00;;
2542;SDS011;1116;51.502;7.414;2023-04-03T13:12:02;2.73;;;1.47;;
2542;SDS011;1116;51.502;7.414;2023-04-03T13:14:49;2.70;;;1.10;;
2542;SDS011;1116;51.502;7.414;2023-04-03T13:17:23;3.13;;;1.30;;
2542;SDS011;1116;51.502;7.414;2023-04-03T13:20:09;1.70;;;1.10;;
2542;SDS011;1116;51.502;7.414;2023-04-03T13:22:48;4.10;;;1.33;;
2542;SDS011;1116;51.502;7.414;2023-04-03T13:25:24;2.83;;;1.20;;
2542;SDS011;1116;51.502;7.414;2023-04-03T13:27:57;3.83;;;1.40;;
2542;SDS011;1116;51.502;7.414;2023-04-03T13:30:53;4.30;;;1.30;;
2542;SDS011;1116;51.502;7.414;2023-04-03T13:33:29;1.90;;;1.20;;
2542;SDS011;1116;51.502;7.414;2023-04-03T13:36:06;3.67;;;1.63;;
2542;SDS011;1116;51.502;7.414;2023-04-03T13:38:39;1.90;;;1.17;;
2542;SDS011;1116;51.502;7.414;2023-04-03T13:41:22;2.10;;;1.23;;
2542;SDS011;1116;51.502;7.414;2023-04-03T13:43:57;1.30;;;1.20;;
2542;SDS011;1116;51.502;7.414;2023-04-03T13:46:49;2.13;;;1.27;;
2542;SDS011;1116;51.502;7.414;2023-04-03T13:49:21;2.93;;;0.90;;
2542;SDS011;1116;51.502;7.414;2023-04-03T13:51:59;1.87;;;1.37;;
2542;SDS011;1116;51.502;7.414;2023-04-03T13:54:35;2.80;;;1.50;;
2542;SDS011;1116;51.502;7.414;2023-04-03T13:57:12;3.20;;;1.10;;
2542;SDS011;1116;51.502;7.414;2023-04-03T13:59:45;2.20;;;1.03;;
2542;SDS011;1116;51.502;7.414;2023-04-03T14:02:20;2.97;;;1.20;;
2542;SDS011;1116;51.502;7.414;2023-04-03T14:04:54;1.37;;;1.10;;
2542;SDS011;1116;51.502;7.414;2023-04-03T14:07:29;3.37;;;1.20;;
2542;SDS011;1116;51.502;7.414;2023-04-03T14:10:01;2.00;;;1.20;;
2542;SDS011;1116;51.502;7.414;2023-04-03T14:12:33;1.63;;;1.10;;
2542;SDS011;1116;51.502;7.414;2023-04-03T14:15:10;3.37;;;1.20;;
2542;SDS011;1116;51.502;7.414;2023-04-03T14:17:49;2.93;;;1.23;;
2542;SDS011;1116;51.502;7.414;2023-04-03T14:20:23;3.10;;;1.63;;
2542;SDS011;1116;51.502;7.414;2023-04-03T14:23:00;2.30;;;1.10;;
2542;SDS011;1116;51.502;7.414;2023-04-03T14:25:34;4.13;;;1.33;;
2542;SDS011;1116;51.502;7.414;2023-04-03T14:28:13;3.60;;;1.20;;
2542;SDS011;1116;51.502;7.414;2023-04-03T14:30:47;3.90;;;1.20;;
2542;SDS011;1116;51.502;7.414;2023-04-03T14:33:22;6.50;;;1.50;;
2542;SDS011;1116;51.502;7.414;2023-04-03T14:35:54;2.13;;;1.40;;
2542;SDS011;1116;51.502;7.414;2023-04-03T14:38:26;3.90;;;1.63;;
2542;SDS011;1116;51.502;7.414;2023-04-03T14:40:59;1.97;;;1.33;;
2542;SDS011;1116;51.502;7.414;2023-04-03T14:43:46;2.33;;;1.23;;
2542;SDS011;1116;51.502;7.414;2023-04-03T14:46:19;2.23;;;1.40;;
2542;SDS011;1116;51.502;7.414;2023-04-03T14:49:05;4.27;;;2.00;;
2542;SDS011;1116;51.502;7.414;2023-04-03T14:51:50;2.47;;;1.60;;
2542;SDS011;1116;51.502;7.414;2023-04-03T14:54:22;2.10;;;1.30;;
2542;SDS011;1116;51.502;7.414;2023-04-03T14:56:58;2.90;;;1.57;;
2542;SDS011;1116;51.502;7.414;2023-04-03T14:59:30;3.07;;;1.80;;
2542;SDS011;1116;51.502;7.414;2023-04-03T15:02:02;1.90;;;1.70;;
2542;SDS011;1116;51.502;7.414;2023-04-03T15:04:37;5.37;;;1.87;;
2542;SDS011;1116;51.502;7.414;2023-04-03T15:07:08;2.13;;;1.40;;
2542;SDS011;1116;51.502;7.414;2023-04-03T15:09:39;2.60;;;1.10;;
2542;SDS011;1116;51.502;7.414;2023-04-03T15:12:10;2.80;;;1.50;;
2542;SDS011;1116;51.502;7.414;2023-04-03T15:14:42;7.10;;;1.40;;
2542;SDS011;1116;51.502;7.414;2023-04-03T15:17:27;2.23;;;1.40;;
2542;SDS011;1116;51.502;7.414;2023-04-03T15:20:01;2.57;;;1.60;;
2542;SDS011;1116;51.502;7.414;2023-04-03T15:22:33;3.27;;;1.50;;
2542;SDS011;1116;51.502;7.414;2023-04-03T15:25:06;2.93;;;1.57;;
2542;SDS011;1116;51.502;7.414;2023-04-03T15:27:38;2.37;;;1.60;;
2542;SDS011;1116;51.502;7.414;2023-04-03T15:30:13;2.23;;;1.53;;
2542;SDS011;1116;51.502;7.414;2023-04-03T15:32:47;1.50;;;1.40;;
2542;SDS011;1116;51.502;7.414;2023-04-03T15:35:23;2.33;;;1.43;;
2542;SDS011;1116;51.502;7.414;2023-04-03T15:37:54;3.10;;;1.90;;
2542;SDS011;1116;51.502;7.414;2023-04-03T15:40:28;5.77;;;2.10;;
2542;SDS011;1116;51.502;7.414;2023-04-03T15:42:59;2.60;;;1.60;;
2542;SDS011;1116;51.502;7.414;2023-04-03T15:45:31;1.93;;;1.70;;
2542;SDS011;1116;51.502;7.414;2023-04-03T15:48:04;2.67;;;1.40;;
2542;SDS011;1116;51.502;7.414;2023-04-03T15:50:38;3.43;;;1.67;;
2542;SDS011;1116;51.502;7.414;2023-04-03T15:53:13;3.30;;;1.50;;
2542;SDS011;1116;51.502;7.414;2023-04-03T15:55:44;3.60;;;1.60;;
2542;SDS011;1116;51.502;7.414;2023-04-03T15:58:15;2.23;;;1.43;;
2542;SDS011;1116;51.502;7.414;2023-04-03T16:00:46;3.23;;;1.77;;
2542;SDS011;1116;51.502;7.414;2023-04-03T16:03:18;3.53;;;1.70;;
2542;SDS011;1116;51.502;7.414;2023-04-03T16:05:56;4.80;;;1.80;;
2542;SDS011;1116;51.502;7.414;2023-04-03T16:08:29;4.30;;;1.60;;
2542;SDS011;1116;51.502;7.414;2023-04-03T16:11:00;2.57;;;1.50;;
2542;SDS011;1116;51.502;7.414;2023-04-03T16:13:31;3.57;;;1.67;;
2542;SDS011;1116;51.502;7.414;2023-04-03T16:16:02;3.73;;;2.23;;
2542;SDS011;1116;51.502;7.414;2023-04-03T16:18:35;4.00;;;1.80;;
2542;SDS011;1116;51.502;7.414;2023-04-03T16:21:09;4.60;;;1.60;;
2542;SDS011;1116;51.502;7.414;2023-04-03T16:23:41;2.83;;;1.33;;
2542;SDS011;1116;51.502;7.414;2023-04-03T16:26:15;2.50;;;1.40;;
2542;SDS011;1116;51.502;7.414;2023-04-03T16:28:47;3.60;;;1.20;;